sensor_id;sensor_type;location;lat;lon;timestamp;P1;durP1;ratioP1;P2;durP2;ratioP2
72728;SDS011;60843;52.062;4.508;2023-06-26T00:00:32;5.80;;;3.10;;
72728;SDS011;60843;52.062;4.508;2023-06-26T00:02:57;6.43;;;2.75;;
72728;SDS011;60843;52.062;4.508;2023-06-26T00:05:23;4.68;;;2.75;;
72728;SDS011;60843;52.062;4.508;2023-06-26T00:07:49;5.03;;;2.60;;
72728;SDS011;60843;52.062;4.508;2023-06-26T00:10:14;4.28;;;2.85;;
72728;SDS011;60843;52.062;4.508;2023-06-26T00:12:40;3.85;;;2.70;;
72728;SDS011;60843;52.062;4.508;2023-06-26T00:15:05;5.47;;;2.50;;
72728;SDS011;60843;52.062;4.508;2023-06-26T00:17:33;4.35;;;2.50;;
72728;SDS011;60843;52.062;4.508;2023-06-26T00:20:02;7.30;;;2.75;;
72728;SDS011;60843;52.062;4.508;2023-06-26T00:22:28;5.10;;;2.85;;
72728;SDS011;60843;52.062;4.508;2023-06-26T00:24:54;4.30;;;2.58;;
72728;SDS011;60843;52.062;4.508;2023-06-26T00:27:19;6.63;;;2.78;;
72728;SDS011;60843;52.062;4.508;2023-06-26T00:29:45;7.18;;;2.92;;
72728;SDS011;60843;52.062;4.508;2023-06-26T00:32:10;6.60;;;2.80;;
72728;SDS011;60843;52.062;4.508;2023-06-26T00:34:35;5.77;;;2.80;;
72728;SDS011;60843;52.062;4.508;2023-06-26T00:37:01;6.47;;;2.80;;
72728;SDS011;60843;52.062;4.508;2023-06-26T00:39:26;6.37;;;2.63;;
72728;SDS011;60843;52.062;4.508;2023-06-26T00:41:52;9.85;;;2.85;;
72728;SDS011;60843;52.062;4.508;2023-06-26T00:44:20;5.30;;;2.30;;
72728;SDS011;60843;52.062;4.508;2023-06-26T00:46:45;5.00;;;2.50;;
72728;SDS011;60843;52.062;4.508;2023-06-26T00:49:11;5.83;;;2.53;;
72728;SDS011;60843;52.062;4.508;2023-06-26T00:51:37;6.45;;;2.47;;
72728;SDS011;60843;52.062;4.508;2023-06-26T00:54:03;8.45;;;2.78;;
72728;SDS011;60843;52.062;4.508;2023-06-26T00:56:29;5.32;;;2.30;;
72728;SDS011;60843;52.062;4.508;2023-06-26T00:58:56;7.45;;;2.60;;
72728;SDS011;60843;52.062;4.508;2023-06-26T01:01:21;8.45;;;2.60;;
72728;SDS011;60843;52.062;4.508;2023-06-26T01:03:50;7.55;;;2.03;;
72728;SDS011;60843;52.062;4.508;2023-06-26T01:06:17;5.10;;;2.25;;
72728;SDS011;60843;52.062;4.508;2023-06-26T01:08:43;7.20;;;2.40;;
72728;SDS011;60843;52.062;4.508;2023-06-26T01:11:09;11.00;;;2.63;;
72728;SDS011;60843;52.062;4.508;2023-06-26T01:13:34;7.03;;;2.40;;
72728;SDS011;60843;52.062;4.508;2023-06-26T01:16:00;6.75;;;2.25;;
72728;SDS011;60843;52.062;4.508;2023-06-26T01:18:27;9.88;;;2.60;;
72728;SDS011;60843;52.062;4.508;2023-06-26T01:20:53;9.15;;;2.50;;
72728;SDS011;60843;52.062;4.508;2023-06-26T01:23:29;4.38;;;2.03;;
72728;SDS011;60843;52.062;4.508;2023-06-26T01:28:45;7.82;;;2.63;;
72728;SDS011;60843;52.062;4.508;2023-06-26T01:31:11;6.63;;;2.40;;
72728;SDS011;60843;52.062;4.508;2023-06-26T01:33:37;9.30;;;2.30;;
72728;SDS011;60843;52.062;4.508;2023-06-26T01:36:03;9.00;;;2.60;;
72728;SDS011;60843;52.062;4.508;2023-06-26T01:38:29;7.55;;;2.55;;
72728;SDS011;60843;52.062;4.508;2023-06-26T01:40:55;7.90;;;3.20;;
72728;SDS011;60843;52.062;4.508;2023-06-26T01:46:36;6.82;;;2.63;;
72728;SDS011;60843;52.062;4.508;2023-06-26T01:52:12;9.98;;;3.03;;
72728;SDS011;60843;52.062;4.508;2023-06-26T01:57:40;9.13;;;2.20;;
72728;SDS011;60843;52.062;4.508;2023-06-26T02:00:07;6.97;;;2.33;;
72728;SDS011;60843;52.062;4.508;2023-06-26T02:02:36;7.90;;;2.55;;
72728;SDS011;60843;52.062;4.508;2023-06-26T02:05:02;7.60;;;2.40;;
72728;SDS011;60843;52.062;4.508;2023-06-26T02:07:27;5.93;;;2.38;;
72728;SDS011;60843;52.062;4.508;2023-06-26T02:09:52;8.00;;;2.53;;
72728;SDS011;60843;52.062;4.508;2023-06-26T02:12:18;10.53;;;2.50;;
72728;SDS011;60843;52.062;4.508;2023-06-26T02:14:43;7.82;;;2.65;;
72728;SDS011;60843;52.062;4.508;2023-06-26T02:17:09;6.07;;;2.70;;
72728;SDS011;60843;52.062;4.508;2023-06-26T02:19:34;8.40;;;3.10;;
72728;SDS011;60843;52.062;4.508;2023-06-26T02:22:00;11.27;;;2.60;;
72728;SDS011;60843;52.062;4.508;2023-06-26T02:24:25;12.20;;;3.70;;
72728;SDS011;60843;52.062;4.508;2023-06-26T02:26:54;11.80;;;2.80;;
72728;SDS011;60843;52.062;4.508;2023-06-26T02:29:20;12.73;;;2.60;;
72728;SDS011;60843;52.062;4.508;2023-06-26T02:31:46;13.50;;;3.28;;
72728;SDS011;60843;52.062;4.508;2023-06-26T02:34:11;11.50;;;2.50;;
72728;SDS011;60843;52.062;4.508;2023-06-26T02:36:36;11.65;;;2.60;;
72728;SDS011;60843;52.062;4.508;2023-06-26T02:39:02;12.82;;;3.17;;
72728;SDS011;60843;52.062;4.508;2023-06-26T02:41:27;7.80;;;2.58;;
72728;SDS011;60843;52.062;4.508;2023-06-26T02:43:53;11.18;;;2.75;;
72728;SDS011;60843;52.062;4.508;2023-06-26T02:46:18;12.02;;;3.00;;
72728;SDS011;60843;52.062;4.508;2023-06-26T02:48:43;10.47;;;2.53;;
72728;SDS011;60843;52.062;4.508;2023-06-26T02:51:09;14.50;;;3.23;;
72728;SDS011;60843;52.062;4.508;2023-06-26T02:53:34;10.77;;;3.30;;
72728;SDS011;60843;52.062;4.508;2023-06-26T02:56:00;10.45;;;3.03;;
72728;SDS011;60843;52.062;4.508;2023-06-26T02:58:26;9.68;;;3.50;;
72728;SDS011;60843;52.062;4.508;2023-06-26T03:00:51;11.65;;;2.85;;
72728;SDS011;60843;52.062;4.508;2023-06-26T03:03:18;10.63;;;3.47;;
72728;SDS011;60843;52.062;4.508;2023-06-26T03:05:44;8.63;;;2.55;;
72728;SDS011;60843;52.062;4.508;2023-06-26T03:08:09;13.68;;;3.38;;
72728;SDS011;60843;52.062;4.508;2023-06-26T03:10:35;13.37;;;2.67;;
72728;SDS011;60843;52.062;4.508;2023-06-26T03:13:00;12.45;;;2.88;;
72728;SDS011;60843;52.062;4.508;2023-06-26T03:15:26;10.80;;;3.10;;
72728;SDS011;60843;52.062;4.508;2023-06-26T03:17:51;14.93;;;3.42;;
72728;SDS011;60843;52.062;4.508;2023-06-26T03:20:17;8.02;;;2.70;;
72728;SDS011;60843;52.062;4.508;2023-06-26T03:22:42;11.13;;;2.70;;
72728;SDS011;60843;52.062;4.508;2023-06-26T03:25:07;7.60;;;2.87;;
72728;SDS011;60843;52.062;4.508;2023-06-26T03:27:33;6.57;;;2.40;;
72728;SDS011;60843;52.062;4.508;2023-06-26T03:29:58;13.52;;;3.10;;
72728;SDS011;60843;52.062;4.508;2023-06-26T03:32:24;8.87;;;2.80;;
72728;SDS011;60843;52.062;4.508;2023-06-26T03:34:49;8.63;;;2.50;;
72728;SDS011;60843;52.062;4.508;2023-06-26T03:37:14;8.60;;;2.80;;
72728;SDS011;60843;52.062;4.508;2023-06-26T03:39:40;7.50;;;2.20;;
72728;SDS011;60843;52.062;4.508;2023-06-26T03:42:06;9.60;;;2.85;;
72728;SDS011;60843;52.062;4.508;2023-06-26T03:44:32;6.55;;;2.55;;
72728;SDS011;60843;52.062;4.508;2023-06-26T03:46:57;10.48;;;2.70;;
72728;SDS011;60843;52.062;4.508;2023-06-26T03:49:23;7.65;;;2.50;;
72728;SDS011;60843;52.062;4.508;2023-06-26T03:51:48;6.40;;;2.53;;
72728;SDS011;60843;52.062;4.508;2023-06-26T03:54:14;10.77;;;2.80;;
72728;SDS011;60843;52.062;4.508;2023-06-26T03:56:39;8.27;;;2.50;;
72728;SDS011;60843;52.062;4.508;2023-06-26T03:59:05;10.65;;;2.80;;
72728;SDS011;60843;52.062;4.508;2023-06-26T04:01:30;6.97;;;2.60;;
72728;SDS011;60843;52.062;4.508;2023-06-26T04:03:56;6.75;;;2.15;;
72728;SDS011;60843;52.062;4.508;2023-06-26T04:06:21;7.63;;;2.60;;
72728;SDS011;60843;52.062;4.508;2023-06-26T04:08:46;7.45;;;2.40;;
72728;SDS011;60843;52.062;4.508;2023-06-26T04:11:12;5.75;;;2.50;;
72728;SDS011;60843;52.062;4.508;2023-06-26T04:13:38;7.32;;;2.58;;
72728;SDS011;60843;52.062;4.508;2023-06-26T04:16:03;6.85;;;2.50;;
72728;SDS011;60843;52.062;4.508;2023-06-26T04:18:31;6.07;;;2.30;;
72728;SDS011;60843;52.062;4.508;2023-06-26T04:21:09;8.20;;;2.50;;
72728;SDS011;60843;52.062;4.508;2023-06-26T04:23:37;4.50;;;2.08;;
72728;SDS011;60843;52.062;4.508;2023-06-26T04:26:04;8.32;;;2.25;;
72728;SDS011;60843;52.062;4.508;2023-06-26T04:28:33;5.65;;;2.13;;
72728;SDS011;60843;52.062;4.508;2023-06-26T04:30:59;4.43;;;1.58;;
72728;SDS011;60843;52.062;4.508;2023-06-26T04:33:26;3.80;;;1.92;;
72728;SDS011;60843;52.062;4.508;2023-06-26T04:35:51;3.65;;;1.80;;
72728;SDS011;60843;52.062;4.508;2023-06-26T04:38:18;5.85;;;2.05;;
72728;SDS011;60843;52.062;4.508;2023-06-26T04:40:43;4.90;;;1.95;;
72728;SDS011;60843;52.062;4.508;2023-06-26T04:43:09;4.70;;;1.63;;
72728;SDS011;60843;52.062;4.508;2023-06-26T04:45:34;3.83;;;1.60;;
72728;SDS011;60843;52.062;4.508;2023-06-26T04:48:00;3.45;;;1.55;;
72728;SDS011;60843;52.062;4.508;2023-06-26T04:50:25;5.30;;;2.00;;
72728;SDS011;60843;52.062;4.508;2023-06-26T04:52:53;6.63;;;1.60;;
72728;SDS011;60843;52.062;4.508;2023-06-26T04:55:25;5.07;;;1.80;;
72728;SDS011;60843;52.062;4.508;2023-06-26T04:57:50;8.20;;;2.10;;
72728;SDS011;60843;52.062;4.508;2023-06-26T05:00:16;6.50;;;1.80;;
72728;SDS011;60843;52.062;4.508;2023-06-26T05:02:42;6.93;;;1.85;;
72728;SDS011;60843;52.062;4.508;2023-06-26T05:05:07;4.95;;;1.73;;
72728;SDS011;60843;52.062;4.508;2023-06-26T05:07:33;6.38;;;2.08;;
72728;SDS011;60843;52.062;4.508;2023-06-26T05:09:58;8.23;;;2.13;;
72728;SDS011;60843;52.062;4.508;2023-06-26T05:12:23;5.77;;;1.93;;
72728;SDS011;60843;52.062;4.508;2023-06-26T05:14:49;4.55;;;1.70;;
72728;SDS011;60843;52.062;4.508;2023-06-26T05:17:14;5.28;;;1.90;;
72728;SDS011;60843;52.062;4.508;2023-06-26T05:19:40;3.95;;;1.55;;
72728;SDS011;60843;52.062;4.508;2023-06-26T05:22:05;3.80;;;2.10;;
72728;SDS011;60843;52.062;4.508;2023-06-26T05:24:33;2.92;;;1.50;;
72728;SDS011;60843;52.062;4.508;2023-06-26T05:27:03;4.25;;;1.40;;
72728;SDS011;60843;52.062;4.508;2023-06-26T05:29:32;3.30;;;1.27;;
72728;SDS011;60843;52.062;4.508;2023-06-26T05:31:59;4.75;;;1.50;;
72728;SDS011;60843;52.062;4.508;2023-06-26T05:34:25;5.95;;;1.92;;
72728;SDS011;60843;52.062;4.508;2023-06-26T05:36:54;5.10;;;1.70;;
72728;SDS011;60843;52.062;4.508;2023-06-26T05:39:22;2.22;;;1.10;;
72728;SDS011;60843;52.062;4.508;2023-06-26T05:41:48;5.22;;;1.90;;
72728;SDS011;60843;52.062;4.508;2023-06-26T05:44:14;4.20;;;1.45;;
72728;SDS011;60843;52.062;4.508;2023-06-26T05:46:39;8.03;;;1.37;;
72728;SDS011;60843;52.062;4.508;2023-06-26T05:49:05;3.95;;;1.00;;
72728;SDS011;60843;52.062;4.508;2023-06-26T05:51:30;3.92;;;1.20;;
72728;SDS011;60843;52.062;4.508;2023-06-26T05:53:56;3.72;;;0.90;;
72728;SDS011;60843;52.062;4.508;2023-06-26T05:56:22;1.75;;;0.82;;
72728;SDS011;60843;52.062;4.508;2023-06-26T05:58:47;1.95;;;0.50;;
72728;SDS011;60843;52.062;4.508;2023-06-26T06:01:13;2.88;;;1.10;;
72728;SDS011;60843;52.062;4.508;2023-06-26T06:03:39;2.35;;;0.80;;
72728;SDS011;60843;52.062;4.508;2023-06-26T06:06:04;3.38;;;0.75;;
72728;SDS011;60843;52.062;4.508;2023-06-26T06:08:30;3.40;;;0.73;;
72728;SDS011;60843;52.062;4.508;2023-06-26T06:10:55;5.37;;;0.90;;
72728;SDS011;60843;52.062;4.508;2023-06-26T06:13:20;2.40;;;0.70;;
72728;SDS011;60843;52.062;4.508;2023-06-26T06:15:46;2.70;;;1.07;;
72728;SDS011;60843;52.062;4.508;2023-06-26T06:18:11;7.07;;;1.40;;
72728;SDS011;60843;52.062;4.508;2023-06-26T06:20:36;6.78;;;0.88;;
72728;SDS011;60843;52.062;4.508;2023-06-26T06:23:02;3.00;;;0.80;;
72728;SDS011;60843;52.062;4.508;2023-06-26T06:25:27;4.28;;;0.90;;
72728;SDS011;60843;52.062;4.508;2023-06-26T06:27:53;3.33;;;0.90;;
72728;SDS011;60843;52.062;4.508;2023-06-26T06:30:18;4.20;;;0.82;;
72728;SDS011;60843;52.062;4.508;2023-06-26T06:32:44;2.40;;;0.55;;
72728;SDS011;60843;52.062;4.508;2023-06-26T06:35:09;6.38;;;1.30;;
72728;SDS011;60843;52.062;4.508;2023-06-26T06:37:38;2.03;;;0.90;;
72728;SDS011;60843;52.062;4.508;2023-06-26T06:40:04;6.18;;;0.98;;
72728;SDS011;60843;52.062;4.508;2023-06-26T06:42:31;2.47;;;0.55;;
72728;SDS011;60843;52.062;4.508;2023-06-26T06:44:57;2.60;;;0.70;;
72728;SDS011;60843;52.062;4.508;2023-06-26T06:47:22;1.95;;;0.85;;
72728;SDS011;60843;52.062;4.508;2023-06-26T06:49:48;4.60;;;1.00;;
72728;SDS011;60843;52.062;4.508;2023-06-26T06:52:13;3.13;;;0.73;;
72728;SDS011;60843;52.062;4.508;2023-06-26T06:54:52;1.40;;;0.60;;
72728;SDS011;60843;52.062;4.508;2023-06-26T06:57:23;3.25;;;0.90;;
72728;SDS011;60843;52.062;4.508;2023-06-26T06:59:49;4.68;;;0.85;;
72728;SDS011;60843;52.062;4.508;2023-06-26T07:02:16;4.87;;;0.80;;
72728;SDS011;60843;52.062;4.508;2023-06-26T07:07:07;1.37;;;0.53;;
72728;SDS011;60843;52.062;4.508;2023-06-26T07:09:33;6.40;;;1.30;;
72728;SDS011;60843;52.062;4.508;2023-06-26T07:11:59;5.38;;;1.00;;
72728;SDS011;60843;52.062;4.508;2023-06-26T07:14:25;2.83;;;0.60;;
72728;SDS011;60843;52.062;4.508;2023-06-26T07:16:50;3.30;;;0.93;;
72728;SDS011;60843;52.062;4.508;2023-06-26T07:19:16;2.50;;;0.70;;
72728;SDS011;60843;52.062;4.508;2023-06-26T07:21:41;2.60;;;0.63;;
72728;SDS011;60843;52.062;4.508;2023-06-26T07:24:08;3.13;;;0.82;;
72728;SDS011;60843;52.062;4.508;2023-06-26T07:26:33;3.67;;;0.90;;
72728;SDS011;60843;52.062;4.508;2023-06-26T07:28:59;5.73;;;1.00;;
72728;SDS011;60843;52.062;4.508;2023-06-26T07:31:24;3.25;;;0.73;;
72728;SDS011;60843;52.062;4.508;2023-06-26T07:33:49;5.00;;;1.00;;
72728;SDS011;60843;52.062;4.508;2023-06-26T07:36:15;4.23;;;1.37;;
72728;SDS011;60843;52.062;4.508;2023-06-26T07:38:40;4.00;;;0.80;;
72728;SDS011;60843;52.062;4.508;2023-06-26T07:41:06;2.72;;;0.68;;
72728;SDS011;60843;52.062;4.508;2023-06-26T07:43:31;4.87;;;0.90;;
72728;SDS011;60843;52.062;4.508;2023-06-26T07:45:56;2.03;;;0.77;;
72728;SDS011;60843;52.062;4.508;2023-06-26T07:48:23;6.55;;;0.85;;
72728;SDS011;60843;52.062;4.508;2023-06-26T07:50:49;3.55;;;0.82;;
72728;SDS011;60843;52.062;4.508;2023-06-26T07:53:15;3.25;;;0.80;;
72728;SDS011;60843;52.062;4.508;2023-06-26T07:55:40;4.03;;;0.80;;
72728;SDS011;60843;52.062;4.508;2023-06-26T07:58:06;1.45;;;0.75;;
72728;SDS011;60843;52.062;4.508;2023-06-26T08:00:32;3.60;;;0.80;;
72728;SDS011;60843;52.062;4.508;2023-06-26T08:02:57;4.70;;;0.83;;
72728;SDS011;60843;52.062;4.508;2023-06-26T08:05:23;3.33;;;0.90;;
72728;SDS011;60843;52.062;4.508;2023-06-26T08:07:48;3.70;;;0.75;;
72728;SDS011;60843;52.062;4.508;2023-06-26T08:10:13;4.82;;;0.85;;
72728;SDS011;60843;52.062;4.508;2023-06-26T08:12:39;2.40;;;0.85;;
72728;SDS011;60843;52.062;4.508;2023-06-26T08:15:05;1.77;;;0.70;;
72728;SDS011;60843;52.062;4.508;2023-06-26T08:17:31;4.45;;;0.82;;
72728;SDS011;60843;52.062;4.508;2023-06-26T08:19:56;2.40;;;0.68;;
72728;SDS011;60843;52.062;4.508;2023-06-26T08:22:22;3.28;;;0.70;;
72728;SDS011;60843;52.062;4.508;2023-06-26T08:24:48;3.40;;;0.80;;
72728;SDS011;60843;52.062;4.508;2023-06-26T08:27:13;2.17;;;0.80;;
72728;SDS011;60843;52.062;4.508;2023-06-26T08:29:39;1.83;;;0.80;;
72728;SDS011;60843;52.062;4.508;2023-06-26T08:32:04;3.58;;;0.80;;
72728;SDS011;60843;52.062;4.508;2023-06-26T08:34:30;3.75;;;1.13;;
72728;SDS011;60843;52.062;4.508;2023-06-26T08:36:55;3.38;;;0.93;;
72728;SDS011;60843;52.062;4.508;2023-06-26T08:39:21;1.30;;;0.90;;
72728;SDS011;60843;52.062;4.508;2023-06-26T08:41:46;3.20;;;1.07;;
72728;SDS011;60843;52.062;4.508;2023-06-26T08:44:11;3.20;;;0.63;;
72728;SDS011;60843;52.062;4.508;2023-06-26T08:46:37;4.03;;;0.77;;
72728;SDS011;60843;52.062;4.508;2023-06-26T08:54:07;3.80;;;0.88;;
72728;SDS011;60843;52.062;4.508;2023-06-26T08:56:39;2.60;;;0.85;;
72728;SDS011;60843;52.062;4.508;2023-06-26T08:59:06;3.45;;;0.70;;
72728;SDS011;60843;52.062;4.508;2023-06-26T09:01:32;2.00;;;0.70;;
72728;SDS011;60843;52.062;4.508;2023-06-26T09:03:57;3.70;;;0.77;;
72728;SDS011;60843;52.062;4.508;2023-06-26T09:06:23;1.75;;;0.68;;
72728;SDS011;60843;52.062;4.508;2023-06-26T09:08:48;2.70;;;0.60;;
72728;SDS011;60843;52.062;4.508;2023-06-26T09:11:14;4.93;;;1.30;;
72728;SDS011;60843;52.062;4.508;2023-06-26T09:13:39;2.90;;;1.08;;
72728;SDS011;60843;52.062;4.508;2023-06-26T09:16:09;6.43;;;1.05;;
72728;SDS011;60843;52.062;4.508;2023-06-26T09:18:34;2.20;;;0.90;;
72728;SDS011;60843;52.062;4.508;2023-06-26T09:21:04;5.82;;;0.90;;
72728;SDS011;60843;52.062;4.508;2023-06-26T09:23:31;4.70;;;1.17;;
72728;SDS011;60843;52.062;4.508;2023-06-26T09:25:57;3.13;;;1.10;;
72728;SDS011;60843;52.062;4.508;2023-06-26T09:28:24;2.72;;;0.77;;
72728;SDS011;60843;52.062;4.508;2023-06-26T09:30:49;4.40;;;0.90;;
72728;SDS011;60843;52.062;4.508;2023-06-26T09:33:16;4.47;;;0.90;;
72728;SDS011;60843;52.062;4.508;2023-06-26T09:35:43;2.90;;;0.80;;
72728;SDS011;60843;52.062;4.508;2023-06-26T09:38:09;6.03;;;1.38;;
72728;SDS011;60843;52.062;4.508;2023-06-26T09:40:34;2.45;;;0.82;;
72728;SDS011;60843;52.062;4.508;2023-06-26T09:43:06;7.05;;;0.98;;
72728;SDS011;60843;52.062;4.508;2023-06-26T09:45:33;3.50;;;1.08;;
72728;SDS011;60843;52.062;4.508;2023-06-26T09:48:01;2.85;;;0.77;;
72728;SDS011;60843;52.062;4.508;2023-06-26T09:50:28;2.92;;;1.17;;
72728;SDS011;60843;52.062;4.508;2023-06-26T09:52:54;5.28;;;1.13;;
72728;SDS011;60843;52.062;4.508;2023-06-26T09:55:20;3.72;;;0.85;;
72728;SDS011;60843;52.062;4.508;2023-06-26T09:57:51;5.97;;;0.73;;
72728;SDS011;60843;52.062;4.508;2023-06-26T10:00:17;3.90;;;0.90;;
72728;SDS011;60843;52.062;4.508;2023-06-26T10:02:43;3.28;;;0.70;;
72728;SDS011;60843;52.062;4.508;2023-06-26T10:05:09;5.72;;;0.95;;
72728;SDS011;60843;52.062;4.508;2023-06-26T10:07:35;1.30;;;0.50;;
72728;SDS011;60843;52.062;4.508;2023-06-26T10:10:02;3.92;;;0.90;;
72728;SDS011;60843;52.062;4.508;2023-06-26T10:12:29;2.60;;;0.80;;
72728;SDS011;60843;52.062;4.508;2023-06-26T10:14:56;1.90;;;0.70;;
72728;SDS011;60843;52.062;4.508;2023-06-26T10:17:22;3.55;;;1.55;;
72728;SDS011;60843;52.062;4.508;2023-06-26T10:19:50;2.72;;;0.73;;
72728;SDS011;60843;52.062;4.508;2023-06-26T10:22:21;2.67;;;0.73;;
72728;SDS011;60843;52.062;4.508;2023-06-26T10:27:16;5.03;;;1.00;;
72728;SDS011;60843;52.062;4.508;2023-06-26T10:29:46;2.72;;;0.80;;
72728;SDS011;60843;52.062;4.508;2023-06-26T10:32:13;3.65;;;0.80;;
72728;SDS011;60843;52.062;4.508;2023-06-26T10:34:40;2.58;;;0.63;;
72728;SDS011;60843;52.062;4.508;2023-06-26T10:37:05;2.78;;;0.82;;
72728;SDS011;60843;52.062;4.508;2023-06-26T10:42:37;3.95;;;0.70;;
72728;SDS011;60843;52.062;4.508;2023-06-26T10:47:37;2.70;;;0.70;;
72728;SDS011;60843;52.062;4.508;2023-06-26T10:55:47;4.93;;;0.60;;
72728;SDS011;60843;52.062;4.508;2023-06-26T11:03:38;3.60;;;0.70;;
72728;SDS011;60843;52.062;4.508;2023-06-26T11:06:14;1.45;;;0.73;;
72728;SDS011;60843;52.062;4.508;2023-06-26T11:08:54;0.63;;;0.32;;
72728;SDS011;60843;52.062;4.508;2023-06-26T11:14:19;2.42;;;0.90;;
72728;SDS011;60843;52.062;4.508;2023-06-26T11:16:46;2.70;;;0.70;;
72728;SDS011;60843;52.062;4.508;2023-06-26T11:19:12;4.03;;;0.90;;
72728;SDS011;60843;52.062;4.508;2023-06-26T11:21:38;3.03;;;0.60;;
72728;SDS011;60843;52.062;4.508;2023-06-26T11:24:07;5.07;;;0.68;;
72728;SDS011;60843;52.062;4.508;2023-06-26T11:26:40;2.00;;;0.70;;
72728;SDS011;60843;52.062;4.508;2023-06-26T11:29:06;2.50;;;0.88;;
72728;SDS011;60843;52.062;4.508;2023-06-26T11:31:36;1.52;;;0.52;;
72728;SDS011;60843;52.062;4.508;2023-06-26T11:34:03;2.53;;;0.93;;
72728;SDS011;60843;52.062;4.508;2023-06-26T11:36:30;4.80;;;0.93;;
72728;SDS011;60843;52.062;4.508;2023-06-26T11:38:56;4.03;;;0.80;;
72728;SDS011;60843;52.062;4.508;2023-06-26T11:41:23;1.48;;;0.70;;
72728;SDS011;60843;52.062;4.508;2023-06-26T11:43:51;2.13;;;0.50;;
72728;SDS011;60843;52.062;4.508;2023-06-26T11:46:18;2.83;;;0.93;;
72728;SDS011;60843;52.062;4.508;2023-06-26T11:48:44;2.15;;;0.65;;
72728;SDS011;60843;52.062;4.508;2023-06-26T11:51:12;3.55;;;0.70;;
72728;SDS011;60843;52.062;4.508;2023-06-26T11:53:45;0.45;;;0.30;;
72728;SDS011;60843;52.062;4.508;2023-06-26T11:56:12;3.58;;;0.60;;
72728;SDS011;60843;52.062;4.508;2023-06-26T12:01:37;2.67;;;0.75;;
72728;SDS011;60843;52.062;4.508;2023-06-26T12:04:05;4.85;;;0.93;;
72728;SDS011;60843;52.062;4.508;2023-06-26T12:06:31;2.25;;;0.55;;
72728;SDS011;60843;52.062;4.508;2023-06-26T12:09:02;4.07;;;0.88;;
72728;SDS011;60843;52.062;4.508;2023-06-26T12:11:30;3.88;;;0.82;;
72728;SDS011;60843;52.062;4.508;2023-06-26T12:13:56;0.90;;;0.50;;
72728;SDS011;60843;52.062;4.508;2023-06-26T12:16:21;3.90;;;0.90;;
72728;SDS011;60843;52.062;4.508;2023-06-26T12:18:50;4.28;;;0.70;;
72728;SDS011;60843;52.062;4.508;2023-06-26T12:21:28;1.90;;;0.68;;
72728;SDS011;60843;52.062;4.508;2023-06-26T12:23:59;2.25;;;0.60;;
72728;SDS011;60843;52.062;4.508;2023-06-26T12:26:25;2.22;;;0.70;;
72728;SDS011;60843;52.062;4.508;2023-06-26T12:28:51;4.82;;;0.70;;
72728;SDS011;60843;52.062;4.508;2023-06-26T12:31:17;6.53;;;0.70;;
72728;SDS011;60843;52.062;4.508;2023-06-26T12:33:47;4.97;;;1.20;;
72728;SDS011;60843;52.062;4.508;2023-06-26T12:36:13;1.10;;;0.60;;
72728;SDS011;60843;52.062;4.508;2023-06-26T12:38:39;2.38;;;0.90;;
72728;SDS011;60843;52.062;4.508;2023-06-26T12:41:05;1.17;;;0.60;;
72728;SDS011;60843;52.062;4.508;2023-06-26T12:43:30;1.98;;;0.60;;
72728;SDS011;60843;52.062;4.508;2023-06-26T12:45:56;0.53;;;0.43;;
72728;SDS011;60843;52.062;4.508;2023-06-26T12:48:35;1.83;;;0.50;;
72728;SDS011;60843;52.062;4.508;2023-06-26T12:51:11;2.75;;;0.70;;
72728;SDS011;60843;52.062;4.508;2023-06-26T12:53:37;3.80;;;1.10;;
72728;SDS011;60843;52.062;4.508;2023-06-26T12:56:06;1.75;;;0.60;;
72728;SDS011;60843;52.062;4.508;2023-06-26T12:58:35;3.03;;;0.60;;
72728;SDS011;60843;52.062;4.508;2023-06-26T13:01:05;2.53;;;0.45;;
72728;SDS011;60843;52.062;4.508;2023-06-26T13:03:39;1.45;;;0.57;;
72728;SDS011;60843;52.062;4.508;2023-06-26T13:06:06;1.45;;;0.60;;
72728;SDS011;60843;52.062;4.508;2023-06-26T13:08:33;1.33;;;0.45;;
72728;SDS011;60843;52.062;4.508;2023-06-26T13:13:25;2.17;;;0.40;;
72728;SDS011;60843;52.062;4.508;2023-06-26T13:15:51;3.83;;;0.70;;
72728;SDS011;60843;52.062;4.508;2023-06-26T13:18:16;3.53;;;0.77;;
72728;SDS011;60843;52.062;4.508;2023-06-26T13:20:42;1.15;;;0.50;;
72728;SDS011;60843;52.062;4.508;2023-06-26T13:23:08;0.85;;;0.52;;
72728;SDS011;60843;52.062;4.508;2023-06-26T13:25:34;3.58;;;0.82;;
72728;SDS011;60843;52.062;4.508;2023-06-26T13:28:00;1.98;;;0.80;;
72728;SDS011;60843;52.062;4.508;2023-06-26T13:30:26;3.80;;;1.00;;
72728;SDS011;60843;52.062;4.508;2023-06-26T13:32:51;1.20;;;0.50;;
72728;SDS011;60843;52.062;4.508;2023-06-26T13:35:17;2.33;;;0.52;;
72728;SDS011;60843;52.062;4.508;2023-06-26T13:37:43;2.20;;;0.68;;
72728;SDS011;60843;52.062;4.508;2023-06-26T13:40:12;2.03;;;0.60;;
72728;SDS011;60843;52.062;4.508;2023-06-26T13:42:38;4.18;;;0.73;;
72728;SDS011;60843;52.062;4.508;2023-06-26T13:45:05;3.15;;;0.60;;
72728;SDS011;60843;52.062;4.508;2023-06-26T13:47:31;0.38;;;0.28;;
72728;SDS011;60843;52.062;4.508;2023-06-26T13:49:56;3.47;;;0.50;;
72728;SDS011;60843;52.062;4.508;2023-06-26T13:52:23;4.70;;;0.95;;
72728;SDS011;60843;52.062;4.508;2023-06-26T13:54:48;1.80;;;0.50;;
72728;SDS011;60843;52.062;4.508;2023-06-26T13:57:14;3.30;;;0.73;;
72728;SDS011;60843;52.062;4.508;2023-06-26T13:59:40;3.72;;;0.90;;
72728;SDS011;60843;52.062;4.508;2023-06-26T14:02:09;1.50;;;0.50;;
72728;SDS011;60843;52.062;4.508;2023-06-26T14:04:35;0.85;;;0.60;;
72728;SDS011;60843;52.062;4.508;2023-06-26T14:07:02;1.45;;;0.60;;
72728;SDS011;60843;52.062;4.508;2023-06-26T14:09:27;0.95;;;0.50;;
72728;SDS011;60843;52.062;4.508;2023-06-26T14:11:53;1.30;;;0.68;;
72728;SDS011;60843;52.062;4.508;2023-06-26T14:14:19;5.60;;;0.90;;
72728;SDS011;60843;52.062;4.508;2023-06-26T14:16:44;1.08;;;0.60;;
72728;SDS011;60843;52.062;4.508;2023-06-26T14:19:10;4.85;;;0.75;;
72728;SDS011;60843;52.062;4.508;2023-06-26T14:21:40;2.25;;;0.75;;
72728;SDS011;60843;52.062;4.508;2023-06-26T14:24:06;3.50;;;0.70;;
72728;SDS011;60843;52.062;4.508;2023-06-26T14:26:31;3.50;;;0.77;;
72728;SDS011;60843;52.062;4.508;2023-06-26T14:29:00;3.38;;;0.73;;
72728;SDS011;60843;52.062;4.508;2023-06-26T14:31:26;2.15;;;0.60;;
72728;SDS011;60843;52.062;4.508;2023-06-26T14:33:51;1.65;;;0.70;;
72728;SDS011;60843;52.062;4.508;2023-06-26T14:36:17;1.67;;;0.60;;
72728;SDS011;60843;52.062;4.508;2023-06-26T14:38:43;2.47;;;0.70;;
72728;SDS011;60843;52.062;4.508;2023-06-26T14:41:08;1.50;;;0.60;;
72728;SDS011;60843;52.062;4.508;2023-06-26T14:43:34;0.77;;;0.43;;
72728;SDS011;60843;52.062;4.508;2023-06-26T14:45:59;1.92;;;0.70;;
72728;SDS011;60843;52.062;4.508;2023-06-26T14:48:24;1.67;;;0.40;;
72728;SDS011;60843;52.062;4.508;2023-06-26T14:50:50;3.00;;;0.73;;
72728;SDS011;60843;52.062;4.508;2023-06-26T14:53:15;1.73;;;0.90;;
72728;SDS011;60843;52.062;4.508;2023-06-26T14:55:41;2.50;;;0.80;;
72728;SDS011;60843;52.062;4.508;2023-06-26T14:58:07;2.85;;;0.80;;
72728;SDS011;60843;52.062;4.508;2023-06-26T15:00:32;1.60;;;0.52;;
72728;SDS011;60843;52.062;4.508;2023-06-26T15:02:58;1.25;;;0.40;;
72728;SDS011;60843;52.062;4.508;2023-06-26T15:05:23;2.97;;;0.90;;
72728;SDS011;60843;52.062;4.508;2023-06-26T15:07:49;3.00;;;0.90;;
72728;SDS011;60843;52.062;4.508;2023-06-26T15:10:14;3.35;;;0.80;;
72728;SDS011;60843;52.062;4.508;2023-06-26T15:12:41;1.88;;;0.90;;
72728;SDS011;60843;52.062;4.508;2023-06-26T15:15:07;2.13;;;0.75;;
72728;SDS011;60843;52.062;4.508;2023-06-26T15:17:33;1.75;;;0.80;;
72728;SDS011;60843;52.062;4.508;2023-06-26T15:19:59;2.55;;;0.60;;
72728;SDS011;60843;52.062;4.508;2023-06-26T15:22:25;3.75;;;0.60;;
72728;SDS011;60843;52.062;4.508;2023-06-26T15:24:51;1.10;;;0.55;;
72728;SDS011;60843;52.062;4.508;2023-06-26T15:27:17;3.63;;;0.90;;